Admiral — WCY6529 — position and weather

sailwx.info

Track history (hours):
 
Tides and Currents Weather Stations Pressure Air Temp Water Temp Dewpoint Dewpoint Depression Visibility Wind Speed Wind Dir Waves Ship Positions

Admiral

Owner: Crowley Marine Services, SEATTLE, WA. More information available from US FCC via Universal Licensing System and Coast Guard Vessel Documentation Center.

Last reported at 2017-Nov-23 06:44 UTC. Time now 2017-Nov-24 04:12 UTC.
Position N 33°46' W 118°13'.

; draft 5.3 m.

Type: Tug. MMSI: 366755020.

Date/timePositionNaut miles runAvg speedWind from/ knotsBaromVisibWave heightAir tempDewpointWater temp
2017-Nov-23 06:44N 33°46' W 118°13'  
2017-Nov-20 00:27N 33°45' W 118°16'2 4.1
2017-Nov-20 00:01N 33°43' W 118°16'3 1.6
2017-Nov-19 21:58N 33°45' W 118°13'2 1.2
2017-Nov-19 20:07N 33°44' W 118°11'0 1.1
2017-Nov-19 19:59N 33°44' W 118°11'0 0.4
2017-Nov-19 19:22N 33°44' W 118°12'4 1.3
2017-Nov-19 16:11N 33°44' W 118°17'2 0.6
2017-Nov-19 13:11N 33°43' W 118°15'1 7.4
2017-Nov-19 13:00N 33°43' W 118°14'2 2.5
2017-Nov-19 12:19N 33°45' W 118°14'0 0.2
2017-Nov-19 12:00N 33°45' W 118°14'2 3.3
2017-Nov-19 11:30N 33°44' W 118°13'1 2.1
2017-Nov-19 10:57N 33°44' W 118°12'2 3.4
2017-Nov-19 10:25N 33°45' W 118°13'1 0.1
2017-Nov-19 06:53N 33°45' W 118°13'0 0.3
2017-Nov-19 06:26N 33°45' W 118°13'1 1.2
2017-Nov-19 05:58N 33°45' W 118°13'1 0.8
2017-Nov-19 04:18N 33°44' W 118°12'4 0.9
2017-Nov-18 23:47N 33°44' W 118°17'0 0.0
2017-Nov-18 23:30N 33°44' W 118°17'0 0.0
2017-Nov-16 20:02N 33°44' W 118°17'0 3.4
2017-Nov-16 19:59N 33°44' W 118°17'1 2.0
2017-Nov-16 19:29N 33°44' W 118°16'3 0.9
2017-Nov-16 15:46N 33°46' W 118°13'1 2.0
2017-Nov-16 15:22N 33°45' W 118°13'2 3.8
2017-Nov-16 14:58N 33°44' W 118°12'3 5.5
2017-Nov-16 14:30N 33°42' W 118°10'1 2.6
2017-Nov-16 14:00N 33°43' W 118°09'0 0.1
2017-Nov-16 13:30N 33°42' W 118°09'4 7.9
2017-Nov-16 12:56N 33°45' W 118°13'1 2.3
2017-Nov-16 12:30N 33°45' W 118°14'0 0.2
2017-Nov-16 12:00N 33°45' W 118°14'1 2.3
2017-Nov-16 11:30N 33°45' W 118°13'1 2.5
2017-Nov-16 11:00N 33°44' W 118°12'3 5.5
2017-Nov-16 10:29N 33°46' W 118°13'0 0.7
2017-Nov-16 09:59N 33°46' W 118°13'3 4.7
2017-Nov-16 09:18N 33°44' W 118°11'3 0.2
2017-Nov-15 16:08N 33°43' W 118°15'2 8.2
2017-Nov-15 15:57N 33°44' W 118°13'2 3.6
2017-Nov-15 15:18N 33°46' W 118°14'1 1.6
2017-Nov-15 14:59N 33°46' W 118°13'2 4.6
2017-Nov-15 14:29N 33°44' W 118°12'2 2.7
2017-Nov-15 13:54N 33°45' W 118°13'1 2.3
2017-Nov-15 13:28N 33°46' W 118°13'1 2.2
2017-Nov-15 13:00N 33°45' W 118°13'2 4.8
2017-Nov-15 12:30N 33°44' W 118°11'1 1.2
2017-Nov-15 12:00N 33°44' W 118°12'0 0.7
2017-Nov-15 11:31N 33°44' W 118°12'3 0.6
2017-Nov-15 07:02N 33°43' W 118°15'0 8.3
2017-Nov-15 07:00N 33°43' W 118°15'1 0.1
2017-Nov-14 22:17N 33°43' W 118°16'2 0.4
2017-Nov-14 17:59N 33°45' W 118°17'1 0.3
2017-Nov-14 15:15N 33°45' W 118°16'1 1.1
2017-Nov-14 14:21N 33°46' W 118°15'2 0.7
2017-Nov-14 11:30N 33°44' W 118°15'1 2.7
2017-Nov-14 11:00N 33°43' W 118°15'2 0.3
2017-Nov-14 03:46N 33°44' W 118°17'0 0.0
2017-Nov-14 03:30N 33°44' W 118°17'0 0.0
2017-Nov-14 01:50N 33°44' W 118°17'0 0.0
2017-Nov-14 01:06N 33°44' W 118°17'0 0.0
2017-Nov-14 01:00N 33°44' W 118°17'0 0.0
2017-Nov-14 00:30N 33°44' W 118°17'0 0.0
2017-Nov-14 00:00N 33°44' W 118°17'0 0.0
2017-Nov-13 23:30N 33°44' W 118°17'0 0.0
2017-Nov-13 23:00N 33°44' W 118°17'0 0.0
2017-Nov-13 22:30N 33°44' W 118°17'0 0.0
2017-Nov-13 21:58N 33°44' W 118°17'  
Track history (hours):
 
Tides and Currents Weather Stations Pressure Air Temp Water Temp Dewpoint Dewpoint Depression Visibility Wind Speed Wind Dir Waves Ship Positions

Admiral

Owner: Crowley Marine Services, SEATTLE, WA. More information available from US FCC via Universal Licensing System and Coast Guard Vessel Documentation Center.

Last reported at 2017-Nov-23 06:44 UTC. Time now 2017-Nov-24 04:12 UTC.
Position N 33°46' W 118°13'.

; draft 5.3 m.

Type: Tug. MMSI: 366755020.

Date/timePositionNaut miles runAvg speedWind from/ knotsBaromVisibWave heightAir tempDewpointWater temp
2017-Nov-23 06:44N 33°46' W 118°13'  
2017-Nov-20 00:27N 33°45' W 118°16'2 4.1
2017-Nov-20 00:01N 33°43' W 118°16'3 1.6
2017-Nov-19 21:58N 33°45' W 118°13'2 1.2
2017-Nov-19 20:07N 33°44' W 118°11'0 1.1
2017-Nov-19 19:59N 33°44' W 118°11'0 0.4
2017-Nov-19 19:22N 33°44' W 118°12'4 1.3
2017-Nov-19 16:11N 33°44' W 118°17'2 0.6
2017-Nov-19 13:11N 33°43' W 118°15'1 7.4
2017-Nov-19 13:00N 33°43' W 118°14'2 2.5
2017-Nov-19 12:19N 33°45' W 118°14'0 0.2
2017-Nov-19 12:00N 33°45' W 118°14'2 3.3
2017-Nov-19 11:30N 33°44' W 118°13'1 2.1
2017-Nov-19 10:57N 33°44' W 118°12'2 3.4
2017-Nov-19 10:25N 33°45' W 118°13'1 0.1
2017-Nov-19 06:53N 33°45' W 118°13'0 0.3
2017-Nov-19 06:26N 33°45' W 118°13'1 1.2
2017-Nov-19 05:58N 33°45' W 118°13'1 0.8
2017-Nov-19 04:18N 33°44' W 118°12'4 0.9
2017-Nov-18 23:47N 33°44' W 118°17'0 0.0
2017-Nov-18 23:30N 33°44' W 118°17'0 0.0
2017-Nov-16 20:02N 33°44' W 118°17'0 3.4
2017-Nov-16 19:59N 33°44' W 118°17'1 2.0
2017-Nov-16 19:29N 33°44' W 118°16'3 0.9
2017-Nov-16 15:46N 33°46' W 118°13'1 2.0
2017-Nov-16 15:22N 33°45' W 118°13'2 3.8
2017-Nov-16 14:58N 33°44' W 118°12'3 5.5
2017-Nov-16 14:30N 33°42' W 118°10'1 2.6
2017-Nov-16 14:00N 33°43' W 118°09'0 0.1
2017-Nov-16 13:30N 33°42' W 118°09'4 7.9
2017-Nov-16 12:56N 33°45' W 118°13'1 2.3
2017-Nov-16 12:30N 33°45' W 118°14'0 0.2
2017-Nov-16 12:00N 33°45' W 118°14'1 2.3
2017-Nov-16 11:30N 33°45' W 118°13'1 2.5
2017-Nov-16 11:00N 33°44' W 118°12'3 5.5
2017-Nov-16 10:29N 33°46' W 118°13'0 0.7
2017-Nov-16 09:59N 33°46' W 118°13'3 4.7
2017-Nov-16 09:18N 33°44' W 118°11'3 0.2
2017-Nov-15 16:08N 33°43' W 118°15'2 8.2
2017-Nov-15 15:57N 33°44' W 118°13'2 3.6
2017-Nov-15 15:18N 33°46' W 118°14'1 1.6
2017-Nov-15 14:59N 33°46' W 118°13'2 4.6
2017-Nov-15 14:29N 33°44' W 118°12'2 2.7
2017-Nov-15 13:54N 33°45' W 118°13'1 2.3
2017-Nov-15 13:28N 33°46' W 118°13'1 2.2
2017-Nov-15 13:00N 33°45' W 118°13'2 4.8
2017-Nov-15 12:30N 33°44' W 118°11'1 1.2
2017-Nov-15 12:00N 33°44' W 118°12'0 0.7
2017-Nov-15 11:31N 33°44' W 118°12'3 0.6
2017-Nov-15 07:02N 33°43' W 118°15'0 8.3
2017-Nov-15 07:00N 33°43' W 118°15'1 0.1
2017-Nov-14 22:17N 33°43' W 118°16'2 0.4
2017-Nov-14 17:59N 33°45' W 118°17'1 0.3
2017-Nov-14 15:15N 33°45' W 118°16'1 1.1
2017-Nov-14 14:21N 33°46' W 118°15'2 0.7
2017-Nov-14 11:30N 33°44' W 118°15'1 2.7
2017-Nov-14 11:00N 33°43' W 118°15'2 0.3
2017-Nov-14 03:46N 33°44' W 118°17'0 0.0
2017-Nov-14 03:30N 33°44' W 118°17'0 0.0
2017-Nov-14 01:50N 33°44' W 118°17'0 0.0
2017-Nov-14 01:06N 33°44' W 118°17'0 0.0
2017-Nov-14 01:00N 33°44' W 118°17'0 0.0
2017-Nov-14 00:30N 33°44' W 118°17'0 0.0
2017-Nov-14 00:00N 33°44' W 118°17'0 0.0
2017-Nov-13 23:30N 33°44' W 118°17'0 0.0
2017-Nov-13 23:00N 33°44' W 118°17'0 0.0
2017-Nov-13 22:30N 33°44' W 118°17'0 0.0
2017-Nov-13 21:58N 33°44' W 118°17'  

Dump ship's entire track history